createdAt,value
2017-09-15T00:08:38.379Z,79.99
2017-09-15T00:11:27.451Z,79.04
2017-09-15T00:14:24.591Z,79.09
2017-09-15T00:17:21.451Z,80.37
2017-09-15T00:20:20.524Z,79.64
2017-09-15T00:30:11.264Z,79.89
2017-09-15T00:33:00.270Z,80.50
2017-09-15T00:35:57.751Z,79.36
2017-09-15T00:38:55.656Z,80.14
2017-09-15T00:41:53.019Z,80.67
2017-09-15T00:44:50.871Z,81.61
2017-09-15T00:53:59.103Z,82.58
2017-09-15T00:56:48.279Z,82.97
2017-09-15T00:59:45.419Z,82.81
2017-09-15T01:02:43.386Z,83.34
2017-09-15T01:15:27.907Z,83.87
2017-09-15T01:18:17.696Z,84.68
2017-09-15T01:37:29.392Z,83.39
2017-09-15T01:57:05.543Z,84.20
2017-09-15T02:19:32.674Z,85.92
2017-09-15T02:41:59.208Z,85.14
2017-09-15T02:44:24.988Z,85.34
2017-09-15T02:47:14.576Z,85.73
2017-09-15T02:50:12.539Z,85.83
2017-09-15T03:06:02.943Z,85.25
2017-09-15T03:08:52.023Z,84.52
2017-09-15T03:11:49.446Z,84.42
2017-09-15T03:14:46.700Z,84.63
2017-09-15T03:17:43.862Z,84.54
2017-09-15T03:27:34.728Z,85.68
2017-09-15T03:47:17.194Z,86.15
2017-09-15T03:49:42.951Z,86.39
2017-09-15T04:09:36.356Z,87.09
2017-09-15T04:12:02.128Z,87.48
2017-09-15T04:31:56.343Z,89.88
2017-09-15T04:34:22.090Z,90.38
2017-09-15T04:56:48.218Z,90.54
2017-09-15T04:59:37.408Z,90.24
2017-09-15T05:18:49.190Z,91.90
2017-09-15T05:21:38.223Z,91.41
2017-09-15T05:24:35.592Z,91.20
2017-09-15T05:27:33.566Z,90.75
2017-09-15T05:30:30.757Z,90.47
2017-09-15T05:33:27.556Z,90.46
2017-09-15T05:36:24.456Z,90.64
2017-09-15T05:39:21.600Z,90.00
2017-09-15T05:58:32.771Z,87.99
2017-09-15T06:01:29.767Z,87.34
2017-09-15T06:03:55.542Z,86.68
2017-09-15T06:06:45.423Z,86.09
2017-09-15T06:09:42.295Z,85.66
2017-09-15T06:28:50.855Z,81.65
2017-09-15T06:48:03.274Z,80.97
2017-09-15T07:09:44.488Z,67.90
2017-09-15T07:12:10.268Z,68.52
2017-09-15T07:14:36.119Z,66.90
2017-09-15T07:17:01.915Z,65.74
2017-09-15T07:19:27.692Z,65.36
2017-09-15T07:21:53.467Z,65.61
2017-09-15T07:24:19.271Z,65.29
2017-09-15T07:26:45.072Z,64.55
2017-09-15T07:29:10.828Z,64.89
2017-09-15T07:31:36.594Z,65.28
2017-09-15T07:34:02.371Z,65.41
2017-09-15T07:36:28.151Z,67.47
2017-09-15T07:38:53.920Z,67.69
2017-09-15T07:41:19.724Z,67.90
2017-09-15T07:43:45.518Z,68.93
2017-09-15T07:46:11.308Z,67.18
2017-09-15T07:48:37.094Z,66.46
2017-09-15T07:51:02.838Z,66.62
2017-09-15T07:53:28.616Z,64.80
2017-09-15T07:55:54.568Z,61.35
2017-09-15T07:58:20.354Z,59.06
2017-09-15T08:00:46.163Z,58.97
2017-09-15T08:03:11.907Z,54.86
2017-09-15T08:05:37.695Z,55.38
2017-09-15T08:08:03.488Z,55.91
2017-09-15T08:10:29.284Z,56.12
2017-09-15T08:12:55.046Z,55.47
2017-09-15T08:15:20.828Z,53.17
2017-09-15T08:17:46.590Z,57.30
2017-09-15T08:20:13.219Z,55.97
2017-09-15T08:22:39.004Z,55.32
2017-09-15T08:25:04.856Z,55.41
2017-09-15T08:27:30.598Z,57.67
2017-09-15T08:29:56.371Z,55.42
2017-09-15T08:32:22.195Z,55.21
2017-09-15T08:34:47.983Z,57.63
2017-09-15T08:37:13.726Z,55.75
2017-09-15T08:39:39.526Z,56.23
2017-09-15T08:42:05.315Z,55.35
2017-09-15T08:44:31.068Z,57.85
2017-09-15T08:46:56.843Z,58.04
2017-09-15T08:49:22.611Z,59.20
2017-09-15T08:51:48.394Z,58.03
2017-09-15T08:54:14.148Z,57.86
2017-09-15T08:56:39.910Z,57.32
2017-09-15T08:59:05.704Z,58.90
2017-09-15T09:01:31.454Z,57.39
2017-09-15T09:03:57.226Z,57.30
2017-09-15T09:06:23.028Z,58.05
2017-09-15T09:08:48.824Z,57.46
2017-09-15T09:11:14.616Z,57.22
2017-09-15T09:13:40.420Z,58.21
2017-09-15T09:16:06.178Z,57.88
2017-09-15T09:18:32.027Z,57.06
2017-09-15T09:20:57.829Z,56.92
2017-09-15T09:23:23.631Z,56.31
2017-09-15T09:25:49.381Z,54.77
2017-09-15T09:28:15.186Z,54.58
2017-09-15T09:30:40.969Z,56.34
2017-09-15T09:33:06.732Z,55.61
2017-09-15T09:35:32.510Z,56.00
2017-09-15T09:37:58.282Z,58.35
2017-09-15T09:40:24.039Z,58.28
2017-09-15T09:42:49.842Z,58.99
2017-09-15T09:45:15.699Z,59.12
2017-09-15T09:47:41.559Z,59.29
2017-09-15T09:50:07.346Z,59.51
2017-09-15T09:52:33.146Z,58.82
2017-09-15T09:54:58.911Z,59.26
2017-09-15T09:57:24.683Z,60.62
2017-09-15T09:59:50.482Z,59.07
2017-09-15T10:02:16.299Z,61.35
2017-09-15T10:04:42.082Z,60.34
2017-09-15T10:07:07.846Z,59.20
2017-09-15T10:09:33.691Z,59.74
2017-09-15T10:11:59.524Z,59.27
2017-09-15T10:14:25.310Z,58.47
2017-09-15T10:16:51.089Z,59.33
2017-09-15T10:19:16.847Z,58.66
2017-09-15T10:21:42.664Z,58.49
2017-09-15T10:24:08.410Z,58.02
2017-09-15T10:26:34.242Z,55.43
2017-09-15T10:29:00.059Z,56.40
2017-09-15T10:31:25.818Z,56.76
2017-09-15T10:33:51.571Z,57.36
2017-09-15T10:36:17.379Z,47.50
2017-09-15T10:38:43.136Z,55.71
2017-09-15T10:41:08.892Z,59.31
2017-09-15T10:43:34.695Z,59.85
2017-09-15T10:46:00.471Z,58.02
2017-09-15T10:48:26.251Z,58.99
2017-09-15T10:50:51.991Z,59.57
2017-09-15T10:53:17.790Z,59.87
2017-09-15T10:55:43.952Z,56.76
2017-09-15T10:58:15.970Z,54.71
2017-09-15T11:00:41.769Z,46.86
2017-09-15T11:03:07.549Z,43.55
2017-09-15T11:05:33.304Z,43.17
2017-09-15T11:07:59.098Z,41.79
2017-09-15T11:10:24.871Z,35.29
2017-09-15T11:12:50.640Z,39.13
2017-09-15T11:15:16.422Z,42.15
2017-09-15T11:17:42.184Z,45.55
2017-09-15T11:20:07.982Z,47.08
2017-09-15T11:22:33.788Z,47.29
2017-09-15T11:24:59.543Z,48.62
2017-09-15T11:27:25.318Z,49.16
2017-09-15T11:29:51.079Z,53.42
2017-09-15T11:32:16.871Z,52.02
2017-09-15T11:34:42.662Z,54.09
2017-09-15T11:37:08.699Z,58.13
2017-09-15T11:39:34.524Z,59.07
2017-09-15T11:42:00.294Z,59.76
2017-09-15T11:44:26.055Z,56.56
2017-09-15T11:46:51.917Z,47.61
2017-09-15T11:49:17.680Z,46.57
2017-09-15T11:51:43.526Z,42.26
2017-09-15T11:54:09.403Z,37.76
2017-09-15T11:56:35.196Z,35.91
2017-09-15T11:59:00.960Z,37.01
2017-09-15T12:01:26.727Z,36.99
2017-09-15T12:03:52.524Z,37.61
2017-09-15T12:06:18.270Z,36.10
2017-09-15T12:08:44.016Z,34.47
2017-09-15T12:11:09.798Z,36.65
2017-09-15T12:13:36.356Z,36.33
2017-09-15T12:16:02.169Z,34.75
2017-09-15T12:18:27.926Z,31.54
2017-09-15T12:20:53.764Z,33.88
2017-09-15T12:23:19.651Z,38.97
2017-09-15T12:25:45.415Z,39.57
2017-09-15T12:28:11.240Z,39.91
2017-09-15T12:30:37.108Z,40.14
2017-09-15T12:33:02.906Z,41.65
2017-09-15T12:35:28.772Z,43.10
2017-09-15T12:37:54.548Z,43.51
2017-09-15T12:40:20.390Z,44.46
2017-09-15T12:42:46.168Z,44.26
2017-09-15T12:45:11.931Z,43.50
2017-09-15T12:47:37.700Z,44.46
2017-09-15T12:50:03.520Z,39.45
2017-09-15T12:52:29.296Z,37.32
2017-09-15T12:54:55.109Z,36.08
2017-09-15T12:57:20.894Z,36.01
2017-09-15T12:59:46.687Z,37.01
2017-09-15T13:02:12.515Z,36.36
2017-09-15T13:04:38.304Z,34.91
2017-09-15T13:07:04.059Z,34.15
2017-09-15T13:09:29.816Z,34.24
2017-09-15T13:11:55.627Z,33.47
2017-09-15T13:14:21.392Z,32.97
2017-09-15T13:16:47.178Z,33.06
2017-09-15T13:19:12.939Z,38.29
2017-09-15T13:21:38.695Z,40.22
2017-09-15T13:24:04.488Z,40.08
2017-09-15T13:26:30.243Z,40.56
2017-09-15T13:28:56.064Z,44.84
2017-09-15T13:31:21.850Z,47.02
2017-09-15T13:33:47.607Z,47.93
2017-09-15T13:36:13.355Z,43.23
2017-09-15T13:38:39.150Z,40.77
2017-09-15T13:41:04.896Z,44.36
2017-09-15T13:43:30.676Z,47.18
2017-09-15T13:45:56.492Z,49.66
2017-09-15T13:48:22.256Z,50.87
2017-09-15T13:50:48.019Z,50.11
2017-09-15T13:53:13.806Z,49.92
2017-09-15T13:55:40.344Z,51.11
2017-09-15T13:58:06.133Z,50.78
2017-09-15T14:00:32.006Z,51.79
2017-09-15T14:02:57.784Z,52.92
2017-09-15T14:05:23.531Z,52.87
2017-09-15T14:07:49.351Z,53.33
2017-09-15T14:10:15.127Z,53.78
2017-09-15T14:12:41.003Z,55.84
2017-09-15T14:15:06.803Z,57.33
2017-09-15T14:17:32.614Z,57.57
2017-09-15T14:19:58.362Z,59.39
2017-09-15T14:22:24.148Z,58.55
2017-09-15T14:24:49.894Z,58.08
2017-09-15T14:27:15.769Z,58.85
2017-09-15T14:29:41.554Z,57.16
2017-09-15T14:32:07.394Z,56.48
2017-09-15T14:34:33.189Z,57.07
2017-09-15T14:36:58.963Z,56.81
2017-09-15T14:39:24.746Z,55.86
2017-09-15T14:41:50.538Z,50.46
2017-09-15T14:44:16.301Z,49.32
2017-09-15T14:46:42.107Z,49.83
2017-09-15T14:49:07.883Z,49.53
2017-09-15T14:51:33.669Z,47.27
2017-09-15T14:53:59.464Z,46.40
2017-09-15T14:56:25.217Z,47.92
2017-09-15T14:58:51.003Z,47.35
2017-09-15T15:01:16.810Z,45.51
2017-09-15T15:03:42.571Z,46.71
2017-09-15T15:06:08.370Z,46.29
2017-09-15T15:08:34.175Z,45.69
2017-09-15T15:10:59.926Z,45.05
2017-09-15T15:13:25.703Z,43.21
2017-09-15T15:15:51.491Z,41.92
2017-09-15T15:18:17.242Z,41.73
2017-09-15T15:20:43.035Z,42.60
2017-09-15T15:23:08.839Z,43.36
2017-09-15T15:25:34.619Z,42.47
2017-09-15T15:28:00.371Z,42.37
2017-09-15T15:30:26.132Z,41.70
2017-09-15T15:32:51.928Z,40.19
2017-09-15T15:35:17.734Z,39.80
2017-09-15T15:37:43.513Z,39.55
2017-09-15T15:40:09.267Z,42.98
2017-09-15T15:42:35.065Z,45.30
2017-09-15T15:45:00.832Z,46.01
2017-09-15T15:47:26.618Z,46.82
2017-09-15T15:49:52.435Z,47.70
2017-09-15T15:52:18.206Z,48.10
2017-09-15T15:54:43.967Z,44.52
2017-09-15T15:57:09.763Z,44.26
2017-09-15T15:59:35.516Z,47.32
2017-09-15T16:02:01.265Z,49.77
2017-09-15T16:04:27.030Z,49.00
2017-09-15T16:06:52.804Z,50.23
2017-09-15T16:09:18.602Z,51.19
2017-09-15T16:11:44.342Z,52.07
2017-09-15T16:14:10.107Z,51.40
2017-09-15T16:16:35.890Z,50.46
2017-09-15T16:19:01.654Z,53.03
2017-09-15T16:21:27.462Z,53.94
2017-09-15T16:23:53.218Z,54.90
2017-09-15T16:26:18.986Z,54.33
2017-09-15T16:28:44.795Z,56.16
2017-09-15T16:31:10.570Z,56.13
2017-09-15T16:33:36.339Z,55.66
2017-09-15T16:36:02.167Z,56.74
2017-09-15T16:38:34.078Z,55.60
2017-09-15T16:41:05.906Z,56.93
2017-09-15T16:43:37.739Z,58.84
2017-09-15T16:46:09.659Z,60.27
2017-09-15T16:48:41.547Z,62.27
2017-09-15T16:51:07.327Z,62.46
2017-09-15T16:53:33.114Z,62.05
2017-09-15T16:55:59.382Z,63.52
2017-09-15T16:58:25.175Z,64.51
2017-09-15T17:00:50.935Z,64.94
2017-09-15T17:03:16.719Z,64.83
2017-09-15T17:05:42.505Z,65.90
2017-09-15T17:08:08.266Z,65.69
2017-09-15T17:10:34.043Z,65.59
2017-09-15T17:12:59.818Z,65.93
2017-09-15T17:15:25.595Z,66.04
2017-09-15T17:17:51.339Z,65.75
2017-09-15T17:20:17.140Z,66.26
2017-09-15T17:22:42.903Z,66.48
2017-09-15T17:25:08.711Z,66.03
2017-09-15T17:27:34.484Z,64.90
2017-09-15T17:30:00.250Z,64.99
2017-09-15T17:32:26.047Z,68.11
2017-09-15T17:34:51.836Z,68.45
2017-09-15T17:37:17.578Z,68.24
2017-09-15T17:39:43.345Z,69.96
2017-09-15T17:42:09.143Z,71.69
2017-09-15T17:44:34.896Z,71.78
2017-09-15T17:47:00.675Z,71.07
2017-09-15T17:49:26.477Z,71.25
2017-09-15T17:51:52.247Z,71.01
2017-09-15T17:54:17.998Z,71.78
2017-09-15T17:56:43.788Z,71.59
2017-09-15T17:59:09.635Z,71.76
2017-09-15T18:01:35.430Z,72.24
2017-09-15T18:04:01.199Z,71.10
2017-09-15T18:06:26.946Z,71.87
2017-09-15T18:08:52.757Z,71.66
2017-09-15T18:11:18.584Z,72.08
2017-09-15T18:13:44.355Z,72.49
2017-09-15T18:16:10.140Z,73.76
2017-09-15T18:18:35.964Z,73.56
2017-09-15T18:21:01.713Z,73.82
2017-09-15T18:23:27.480Z,74.13
2017-09-15T18:25:53.282Z,74.05
2017-09-15T18:28:19.084Z,73.93
2017-09-15T18:30:44.864Z,74.61
2017-09-15T18:33:10.660Z,75.72
2017-09-15T18:35:36.427Z,76.04
2017-09-15T18:38:02.178Z,76.76
2017-09-15T18:40:27.991Z,76.83
2017-09-15T18:42:53.754Z,77.32
2017-09-15T18:45:19.639Z,77.66
2017-09-15T18:47:45.426Z,77.32
2017-09-15T18:50:11.896Z,77.23
2017-09-15T18:52:37.682Z,77.36
2017-09-15T18:55:03.471Z,79.59
2017-09-15T18:57:29.228Z,77.37
2017-09-15T18:59:55.163Z,77.30
2017-09-15T19:02:20.931Z,78.61
2017-09-15T19:04:46.720Z,77.80
2017-09-15T19:07:12.479Z,77.57
2017-09-15T19:09:38.314Z,77.57
2017-09-15T19:12:04.149Z,78.41
2017-09-15T19:14:29.905Z,77.68
2017-09-15T19:16:55.696Z,78.20
2017-09-15T19:19:21.526Z,78.45
2017-09-15T19:21:47.328Z,81.33
2017-09-15T19:24:13.115Z,80.42
2017-09-15T19:29:18.048Z,80.35
2017-09-15T19:31:43.826Z,80.93
2017-09-15T19:34:09.628Z,80.62
2017-09-15T19:36:35.384Z,80.45
2017-09-15T19:39:01.175Z,80.91
2017-09-15T19:41:29.084Z,80.61
2017-09-15T19:43:54.883Z,80.86
2017-09-15T19:46:20.635Z,80.68
2017-09-15T19:48:46.378Z,81.06
2017-09-15T19:51:12.746Z,80.73
2017-09-15T19:53:38.571Z,81.66
2017-09-15T19:56:05.184Z,80.85
2017-09-15T19:58:30.954Z,80.75
2017-09-15T20:00:57.200Z,80.69
2017-09-15T20:03:23.069Z,80.62
2017-09-15T20:05:48.840Z,80.53
2017-09-15T20:08:14.604Z,80.37
2017-09-15T20:10:40.388Z,80.45
2017-09-15T20:13:06.211Z,80.80
2017-09-15T20:15:31.987Z,81.16
2017-09-15T20:17:57.798Z,81.36
2017-09-15T20:20:23.561Z,81.77
2017-09-15T20:22:49.347Z,81.94
2017-09-15T20:25:15.219Z,83.21
2017-09-15T20:27:41.027Z,82.78
2017-09-15T20:30:06.850Z,82.19
2017-09-15T20:32:32.596Z,82.38
2017-09-15T20:34:58.425Z,82.54
2017-09-15T20:37:24.236Z,82.64
2017-09-15T20:39:50.051Z,83.44
2017-09-15T20:42:15.902Z,83.48
2017-09-15T20:44:41.663Z,84.50
2017-09-15T20:47:07.410Z,84.40
2017-09-15T20:49:33.221Z,84.21
2017-09-15T20:51:59.118Z,84.21
2017-09-15T20:54:24.916Z,85.05
2017-09-15T20:56:50.692Z,85.25
2017-09-15T20:59:16.458Z,84.65
2017-09-15T21:01:42.263Z,83.63
2017-09-15T21:04:08.112Z,83.65
2017-09-15T21:06:33.880Z,84.38
2017-09-15T21:08:59.667Z,83.44
2017-09-15T21:11:25.424Z,84.72
2017-09-15T21:13:51.305Z,84.27
2017-09-15T21:16:17.081Z,85.20
2017-09-15T21:18:42.907Z,84.61
2017-09-15T21:21:08.680Z,84.41
2017-09-15T21:23:34.455Z,84.13
2017-09-15T21:26:00.251Z,83.71
2017-09-15T21:28:26.120Z,84.40
2017-09-15T21:30:51.923Z,84.54
2017-09-15T21:33:17.684Z,85.12
2017-09-15T21:35:43.510Z,85.30
2017-09-15T21:38:09.239Z,84.94
2017-09-15T21:40:35.152Z,84.96
2017-09-15T21:43:00.899Z,85.66
2017-09-15T21:45:26.662Z,85.75
2017-09-15T21:47:52.604Z,85.82
2017-09-15T21:50:18.355Z,85.52
2017-09-15T21:52:44.125Z,85.15
2017-09-15T21:55:09.962Z,85.11
2017-09-15T21:57:35.795Z,84.30
2017-09-15T22:00:01.606Z,84.43
2017-09-15T22:02:27.396Z,84.13
2017-09-15T22:04:53.148Z,84.96
2017-09-15T22:07:18.987Z,85.12
2017-09-15T22:09:45.031Z,84.84
2017-09-15T22:12:11.072Z,85.71
2017-09-15T22:14:36.819Z,87.34
2017-09-15T22:17:02.620Z,88.06
2017-09-15T22:19:28.399Z,88.61
2017-09-15T22:21:54.175Z,87.32
2017-09-15T22:24:19.951Z,86.57
2017-09-15T22:26:46.459Z,86.09
2017-09-15T22:29:12.223Z,86.15
2017-09-15T22:31:38.117Z,86.17
2017-09-15T22:34:03.900Z,86.19
2017-09-15T22:36:29.679Z,86.12
2017-09-15T22:38:55.462Z,86.01
2017-09-15T22:41:21.210Z,86.05
2017-09-15T22:43:46.994Z,87.53
2017-09-15T22:46:12.843Z,86.59
2017-09-15T22:48:38.590Z,86.39
2017-09-15T22:51:04.386Z,86.28
2017-09-15T22:53:30.183Z,86.90
2017-09-15T22:55:55.956Z,87.24
2017-09-15T22:58:21.783Z,86.46
2017-09-15T23:00:47.546Z,86.92
2017-09-15T23:03:13.286Z,86.77
2017-09-15T23:05:39.054Z,86.62
2017-09-15T23:08:04.835Z,87.06
2017-09-15T23:10:30.604Z,86.83
2017-09-15T23:12:56.399Z,87.65
2017-09-15T23:15:22.198Z,88.31
2017-09-15T23:17:47.964Z,87.89
2017-09-15T23:20:14.795Z,87.46
2017-09-15T23:22:40.579Z,87.37
2017-09-15T23:25:07.195Z,86.77
2017-09-15T23:27:33.019Z,86.00
2017-09-15T23:29:58.775Z,86.35
2017-09-15T23:32:24.528Z,86.70
2017-09-15T23:34:50.318Z,88.40
2017-09-15T23:37:16.083Z,87.10
2017-09-15T23:39:43.310Z,86.81
2017-09-15T23:42:09.104Z,87.17
2017-09-15T23:44:34.863Z,87.68
2017-09-15T23:47:00.608Z,86.80
2017-09-15T23:49:26.410Z,86.85
2017-09-15T23:51:52.171Z,86.74
2017-09-15T23:54:17.947Z,86.42
2017-09-15T23:56:44.090Z,86.32
2017-09-15T23:59:09.946Z,85.92
